Flight Track Log - Related Links

Times and Time Zones

All times are in EST time to prevent confusion due to time zone crossing. See the ASQ5705 flight status page for this flight to view local times or setup timezone preferences in your user account.

Time Position Orientation Groundspeed Altitude Reporting Facility
EST Latitude Longitude Course Direction KTS MPH feet Rate Location/Type
Sun 01:03:09 PM 38.9667 -77.5167 North 186 214 2,100  Level Potomac TRACON
Sun 01:05:36 PM 39.0769 -77.6586 315° West 233 268 7,900 2,423 Climbing Washington Center
Sun 01:06:37 PM 39.1375 -77.6575 North 226 260 10,500 2,182 Climbing Washington Center
Sun 01:07:37 PM 39.2172 -77.6250 18° North 240 276 12,300 1,800 Climbing Washington Center
Sun 01:08:00 PM 39.4735 -77.6855 North  Level Estimated
Sun 01:08:37 PM 39.3011 -77.5925 17° North 275 316 14,100  Level Washington Center
Sun 01:09:35 PM 39.3892 -77.5572 17° North 310 357 15,900 1,192 Climbing Washington Center
Sun 01:11:13 PM 39.5464 -77.4969 16° North 354 407 17,200 987 Climbing New York Center
Sun 01:12:13 PM 39.6614 -77.4567 15° North 385 443 18,500 1,200 Climbing New York Center
Sun 01:13:13 PM 39.7572 -77.4550 North 379 436 19,600 1,150 Climbing New York Center
Sun 01:14:13 PM 39.8586 -77.4322 10° North 374 430 20,800 700 Climbing New York Center
Sun 01:15:13 PM 39.9619 -77.3742 23° Northeast 374 430 21,000 900 Climbing New York Center
Sun 01:16:13 PM 40.0653 -77.3161 23° Northeast 389 448 22,600 1,650 Climbing New York Center
Sun 01:17:13 PM 40.1603 -77.2978 North 389 448 24,300 1,250 Climbing New York Center
Sun 01:18:13 PM 40.2497 -77.3364 342° North 338 389 25,100 850 Climbing New York Center
Sun 01:19:13 PM 40.3411 -77.3803 340° North 332 382 26,000 900 Climbing New York Center
Sun 01:20:13 PM 40.4306 -77.4217 341° North 337 388 26,900 800 Climbing New York Center
Sun 01:21:13 PM 40.5197 -77.4658 339° North 337 388 27,600 600 Climbing New York Center
Sun 01:22:13 PM 40.6092 -77.5072 341° North 337 388 28,100 500 Climbing New York Center
Sun 01:23:13 PM 40.7006 -77.5492 341° North 337 388 28,600 500 Climbing New York Center
Sun 01:24:13 PM 40.7936 -77.5967 339° North 342 394 29,100 500 Climbing New York Center
Sun 01:25:13 PM 40.8872 -77.6389 341° North 347 399 29,600 450 Climbing New York Center
Sun 01:26:13 PM 40.9786 -77.6811 341° North 347 399 30,000 121 Climbing New York Center
Sun 01:28:31 PM 41.2028 -77.7892 340° North 364 419 30,000  Level Cleveland Center
Sun 01:29:32 PM 41.2942 -77.8347 339° North 358 412 30,000  Level Cleveland Center
Sun 01:30:34 PM 41.3819 -77.8758 341° North 346 398 30,000  Level Cleveland Center
Sun 01:31:35 PM 41.4683 -77.9189 340° North 337 388 30,000  Level Cleveland Center
Sun 01:32:37 PM 41.5542 -77.9592 341° North 333 383 30,000  Level Cleveland Center
Sun 01:33:38 PM 41.6564 -78.0097 340° North 330 380 30,000  Level Cleveland Center
Sun 01:34:40 PM 41.7408 -78.0511 340° North 326 375 30,000  Level Cleveland Center
Sun 01:35:41 PM 41.8258 -78.0931 340° North 327 376 30,000  Level Cleveland Center
Sun 01:36:43 PM 41.9144 -78.1358 340° North 324 373 30,000  Level Cleveland Center
Sun 01:37:44 PM 41.9994 -78.1778 340° North 325 374 30,000  Level Cleveland Center
Sun 01:38:46 PM 42.0786 -78.2181 339° North 324 373 30,000  Level Cleveland Center
Sun 01:39:47 PM 42.1625 -78.2586 340° North 323 372 30,000 -439 Level Cleveland Center
Sun 01:40:49 PM 42.2553 -78.3044 340° North 329 379 29,100 -927 Descending Cleveland Center
Sun 01:41:50 PM 42.3481 -78.3522 339° North 348 400 28,100 -537 Descending Cleveland Center
Sun 01:42:52 PM 42.4442 -78.3997 340° North 363 418 28,000 -98 Descending Cleveland Center
Sun 01:43:53 PM 42.5367 -78.4478 339° North 357 411 27,900 -732 Descending Cleveland Center
Sun 01:44:55 PM 42.6514 -78.5050 340° North 363 418 26,500 -1,220 Descending Cleveland Center
Sun 01:45:56 PM 42.7506 -78.5564 339° North 377 434 25,400 -1,073 Descending Cleveland Center
Sun 01:46:58 PM 42.8314 -78.6419 322° Northwest 374 430 24,300 -1,065 Descending Cleveland Center
Sun 01:48:00 PM 42.9022 -78.7478 312° West 377 434 23,200 -1,073 Descending Cleveland Center
Sun 01:49:01 PM 42.9717 -78.8514 313° West 371 427 22,100 -1,176 Descending Cleveland Center
Sun 01:49:42 PM 43.0167 -78.9000 322° Northwest 360 414 21,200 -1,188 Descending Toronto Center
Sun 01:50:42 PM 43.0833 -79.0167 308° West 350 403 20,100 -1,400 Descending Toronto Center
Sun 01:51:42 PM 43.1500 -79.1000 318° Northwest 340 391 18,400 -2,000 Descending Toronto Center
Sun 01:52:42 PM 43.2000 -79.2000 304° West 340 391 16,100 -2,000 Descending Toronto Center
Sun 01:53:42 PM 43.2667 -79.2833 318° Northwest 320 368 14,400 -1,250 Descending Toronto Center
Sun 01:54:42 PM 43.3167 -79.3500 316° Northwest 260 299 13,600 -1,150 Descending Toronto Center
Sun 01:55:42 PM 43.3833 -79.3833 340° North 240 276 12,100 -1,550 Descending Toronto Center
Sun 01:56:42 PM 43.4500 -79.4333 331° Northwest 240 276 10,500 -1,350 Descending Toronto Center
Sun 01:57:42 PM 43.5000 -79.4667 334° Northwest 250 288 9,400 -800 Descending Toronto Center
Sun 01:58:42 PM 43.5500 -79.5000 334° Northwest 240 276 8,900 -600 Descending Toronto Center
Sun 01:59:42 PM 43.6167 -79.4667 20° North 260 299 8,200 -1,050 Descending Toronto Center
Sun 02:00:42 PM 43.6833 -79.4000 36° Northeast 280 322 6,800 -1,250 Descending Toronto Center
Sun 02:01:42 PM 43.7333 -79.3333 44° Northeast 250 288 5,700 -1,300 Descending Toronto Center
Sun 02:02:42 PM 43.7667 -79.2667 55° Northeast 230 265 4,200 -900 Descending Toronto Center
Sun 02:03:42 PM 43.8167 -79.2333 26° Northeast 220 253 3,900 -350 Descending Toronto Center
Sun 02:04:42 PM 43.8500 -79.2667 324° Northwest 160 184 3,500 -450 Descending Toronto Center
Sun 02:05:42 PM 43.8500 -79.3167 270° West 130 150 3,000 -250 Descending Toronto Center
Sun 02:06:42 PM 43.8333 -79.3500 235° Southwest 130 150 3,000  Level Toronto Center
Sun 02:07:42 PM 43.8000 -79.3833 216° Southwest 140 161 3,000  Level Toronto Center
Sun 02:08:42 PM 43.7667 -79.4333 227° Southwest 140 161 3,000 -50 Level Toronto Center
Sun 02:09:42 PM 43.7500 -79.4667 235° Southwest 140 161 2,900 -400 Descending Toronto Center
Sun 02:10:42 PM 43.7167 -79.5000 216° Southwest 130 150 2,200 -700 Descending Toronto Center
Sun 02:11:42 PM 43.7000 -79.5333 235° Southwest 120 138 1,500 -650 Descending Toronto Center
Sun 02:12:42 PM 43.6833 -79.5667 235° Southwest 120 138 900 -600 Descending Toronto Center

Login

Don't have an account? Register now (free) for customized features, flight alerts, and more!